sensor_id;sensor_type;location;lat;lon;timestamp;temperature;humidity
28374;DHT22;15616;40.148;-102.718;2023-02-03T00:04:27;20.30;48.10
28374;DHT22;15616;40.148;-102.718;2023-02-03T00:06:52;20.20;48.20
28374;DHT22;15616;40.148;-102.718;2023-02-03T00:09:19;20.20;48.10
28374;DHT22;15616;40.148;-102.718;2023-02-03T00:11:45;20.20;48.20
28374;DHT22;15616;40.148;-102.718;2023-02-03T00:14:11;20.30;48.20
28374;DHT22;15616;40.148;-102.718;2023-02-03T00:16:37;20.20;48.10
28374;DHT22;15616;40.148;-102.718;2023-02-03T00:19:03;20.20;48.10
28374;DHT22;15616;40.148;-102.718;2023-02-03T00:21:28;20.20;48.10
28374;DHT22;15616;40.148;-102.718;2023-02-03T00:23:54;20.20;48.10
28374;DHT22;15616;40.148;-102.718;2023-02-03T00:26:20;20.20;48.10
28374;DHT22;15616;40.148;-102.718;2023-02-03T00:28:46;20.20;48.10
28374;DHT22;15616;40.148;-102.718;2023-02-03T00:31:24;20.30;48.10
28374;DHT22;15616;40.148;-102.718;2023-02-03T00:33:55;20.20;48.10
28374;DHT22;15616;40.148;-102.718;2023-02-03T00:36:22;20.20;48.20
28374;DHT22;15616;40.148;-102.718;2023-02-03T00:38:47;20.20;48.20
28374;DHT22;15616;40.148;-102.718;2023-02-03T00:41:15;20.30;48.20
28374;DHT22;15616;40.148;-102.718;2023-02-03T00:43:41;20.30;48.20
28374;DHT22;15616;40.148;-102.718;2023-02-03T00:46:07;20.30;48.80
28374;DHT22;15616;40.148;-102.718;2023-02-03T00:48:33;20.30;48.10
28374;DHT22;15616;40.148;-102.718;2023-02-03T00:50:59;20.30;48.00
28374;DHT22;15616;40.148;-102.718;2023-02-03T00:53:25;20.30;48.00
28374;DHT22;15616;40.148;-102.718;2023-02-03T00:55:51;20.30;48.00
28374;DHT22;15616;40.148;-102.718;2023-02-03T00:58:16;20.30;47.90
28374;DHT22;15616;40.148;-102.718;2023-02-03T01:00:42;20.30;47.90
28374;DHT22;15616;40.148;-102.718;2023-02-03T01:03:08;20.30;47.90
28374;DHT22;15616;40.148;-102.718;2023-02-03T01:05:35;20.30;47.90
28374;DHT22;15616;40.148;-102.718;2023-02-03T01:08:01;20.30;48.00
28374;DHT22;15616;40.148;-102.718;2023-02-03T01:10:28;20.30;48.00
28374;DHT22;15616;40.148;-102.718;2023-02-03T01:12:55;20.30;48.00
28374;DHT22;15616;40.148;-102.718;2023-02-03T01:15:21;20.30;48.00
28374;DHT22;15616;40.148;-102.718;2023-02-03T01:17:47;20.30;48.10
28374;DHT22;15616;40.148;-102.718;2023-02-03T01:20:13;20.30;48.10
28374;DHT22;15616;40.148;-102.718;2023-02-03T01:22:40;20.30;48.10
28374;DHT22;15616;40.148;-102.718;2023-02-03T01:25:07;20.30;48.20
28374;DHT22;15616;40.148;-102.718;2023-02-03T01:27:33;20.30;48.20
28374;DHT22;15616;40.148;-102.718;2023-02-03T01:29:59;20.30;48.20
28374;DHT22;15616;40.148;-102.718;2023-02-03T01:32:25;20.30;48.10
28374;DHT22;15616;40.148;-102.718;2023-02-03T01:34:51;20.30;48.10
28374;DHT22;15616;40.148;-102.718;2023-02-03T01:37:17;20.30;48.10
28374;DHT22;15616;40.148;-102.718;2023-02-03T01:39:44;20.30;48.20
28374;DHT22;15616;40.148;-102.718;2023-02-03T01:42:13;20.30;48.20
28374;DHT22;15616;40.148;-102.718;2023-02-03T01:44:47;20.30;48.30
28374;DHT22;15616;40.148;-102.718;2023-02-03T01:47:35;20.20;48.30
28374;DHT22;15616;40.148;-102.718;2023-02-03T01:50:31;20.20;48.30
28374;DHT22;15616;40.148;-102.718;2023-02-03T01:53:10;20.20;48.30
28374;DHT22;15616;40.148;-102.718;2023-02-03T01:55:41;20.20;48.30
28374;DHT22;15616;40.148;-102.718;2023-02-03T01:58:17;20.20;48.40
28374;DHT22;15616;40.148;-102.718;2023-02-03T02:00:47;20.30;48.40
28374;DHT22;15616;40.148;-102.718;2023-02-03T02:03:14;20.30;48.40
28374;DHT22;15616;40.148;-102.718;2023-02-03T02:05:49;20.30;48.30
28374;DHT22;15616;40.148;-102.718;2023-02-03T02:08:19;20.30;48.30
28374;DHT22;15616;40.148;-102.718;2023-02-03T02:10:47;20.30;48.20
28374;DHT22;15616;40.148;-102.718;2023-02-03T02:13:14;20.30;48.20
28374;DHT22;15616;40.148;-102.718;2023-02-03T02:15:51;20.30;48.20
28374;DHT22;15616;40.148;-102.718;2023-02-03T02:32:55;20.30;48.10
28374;DHT22;15616;40.148;-102.718;2023-02-03T02:35:37;20.30;48.10
28374;DHT22;15616;40.148;-102.718;2023-02-03T02:44:02;20.30;48.20
28374;DHT22;15616;40.148;-102.718;2023-02-03T02:46:46;20.30;48.20
28374;DHT22;15616;40.148;-102.718;2023-02-03T02:49:27;20.30;48.20
28374;DHT22;15616;40.148;-102.718;2023-02-03T02:51:56;20.30;48.20
28374;DHT22;15616;40.148;-102.718;2023-02-03T02:54:24;20.30;48.20
28374;DHT22;15616;40.148;-102.718;2023-02-03T02:56:55;20.30;48.30
28374;DHT22;15616;40.148;-102.718;2023-02-03T02:59:22;20.30;48.30
28374;DHT22;15616;40.148;-102.718;2023-02-03T03:01:48;20.30;48.30
28374;DHT22;15616;40.148;-102.718;2023-02-03T03:04:20;20.20;48.30
28374;DHT22;15616;40.148;-102.718;2023-02-03T03:06:50;20.20;48.30
28374;DHT22;15616;40.148;-102.718;2023-02-03T03:12:28;20.20;48.30
28374;DHT22;15616;40.148;-102.718;2023-02-03T03:15:18;20.20;48.40
28374;DHT22;15616;40.148;-102.718;2023-02-03T03:18:33;20.30;48.40
28374;DHT22;15616;40.148;-102.718;2023-02-03T03:20:41;20.20;48.40
28374;DHT22;15616;40.148;-102.718;2023-02-03T03:23:21;20.20;48.40
28374;DHT22;15616;40.148;-102.718;2023-02-03T03:26:45;20.30;48.50
28374;DHT22;15616;40.148;-102.718;2023-02-03T03:29:17;20.30;48.40
28374;DHT22;15616;40.148;-102.718;2023-02-03T03:31:45;20.30;48.40
28374;DHT22;15616;40.148;-102.718;2023-02-03T03:34:12;20.30;48.30
28374;DHT22;15616;40.148;-102.718;2023-02-03T03:36:47;20.30;48.30
28374;DHT22;15616;40.148;-102.718;2023-02-03T03:39:54;20.30;48.20
28374;DHT22;15616;40.148;-102.718;2023-02-03T03:42:39;20.30;48.20
28374;DHT22;15616;40.148;-102.718;2023-02-03T03:50:31;20.30;48.20
28374;DHT22;15616;40.148;-102.718;2023-02-03T03:53:00;20.30;48.10
28374;DHT22;15616;40.148;-102.718;2023-02-03T03:55:29;20.30;48.20
28374;DHT22;15616;40.148;-102.718;2023-02-03T03:57:57;20.20;48.20
28374;DHT22;15616;40.148;-102.718;2023-02-03T04:00:28;20.30;48.30
28374;DHT22;15616;40.148;-102.718;2023-02-03T04:02:58;20.30;48.30
28374;DHT22;15616;40.148;-102.718;2023-02-03T04:05:26;20.30;48.30
28374;DHT22;15616;40.148;-102.718;2023-02-03T04:07:52;20.30;48.30
28374;DHT22;15616;40.148;-102.718;2023-02-03T04:10:33;20.20;48.30
28374;DHT22;15616;40.148;-102.718;2023-02-03T04:13:00;20.30;48.40
28374;DHT22;15616;40.148;-102.718;2023-02-03T04:15:26;20.20;48.30
28374;DHT22;15616;40.148;-102.718;2023-02-03T04:17:52;20.30;48.40
28374;DHT22;15616;40.148;-102.718;2023-02-03T04:20:19;20.30;48.40
28374;DHT22;15616;40.148;-102.718;2023-02-03T04:22:46;20.30;48.30
28374;DHT22;15616;40.148;-102.718;2023-02-03T04:25:12;20.30;48.30
28374;DHT22;15616;40.148;-102.718;2023-02-03T04:27:38;20.30;48.20
28374;DHT22;15616;40.148;-102.718;2023-02-03T04:30:04;20.30;48.10
28374;DHT22;15616;40.148;-102.718;2023-02-03T04:32:30;20.30;48.10
28374;DHT22;15616;40.148;-102.718;2023-02-03T04:34:57;20.30;48.10
28374;DHT22;15616;40.148;-102.718;2023-02-03T04:37:24;20.30;48.00
28374;DHT22;15616;40.148;-102.718;2023-02-03T04:39:52;20.30;48.00
28374;DHT22;15616;40.148;-102.718;2023-02-03T04:42:18;20.30;48.00
28374;DHT22;15616;40.148;-102.718;2023-02-03T04:44:44;20.30;48.10
28374;DHT22;15616;40.148;-102.718;2023-02-03T04:47:10;20.30;48.10
28374;DHT22;15616;40.148;-102.718;2023-02-03T04:49:36;20.30;48.10
28374;DHT22;15616;40.148;-102.718;2023-02-03T04:52:01;20.30;48.10
28374;DHT22;15616;40.148;-102.718;2023-02-03T04:54:27;20.30;48.20
28374;DHT22;15616;40.148;-102.718;2023-02-03T04:56:53;20.30;48.20
28374;DHT22;15616;40.148;-102.718;2023-02-03T04:59:19;20.30;48.20
28374;DHT22;15616;40.148;-102.718;2023-02-03T05:01:45;20.30;48.10
28374;DHT22;15616;40.148;-102.718;2023-02-03T05:04:11;20.30;48.20
28374;DHT22;15616;40.148;-102.718;2023-02-03T05:06:36;20.30;48.20
28374;DHT22;15616;40.148;-102.718;2023-02-03T05:09:02;20.20;48.30
28374;DHT22;15616;40.148;-102.718;2023-02-03T05:11:29;20.20;48.40
28374;DHT22;15616;40.148;-102.718;2023-02-03T05:13:55;20.10;48.40
28374;DHT22;15616;40.148;-102.718;2023-02-03T05:16:21;20.20;48.50
28374;DHT22;15616;40.148;-102.718;2023-02-03T05:18:47;20.10;48.40
28374;DHT22;15616;40.148;-102.718;2023-02-03T05:21:13;20.10;48.40
28374;DHT22;15616;40.148;-102.718;2023-02-03T05:23:39;20.10;48.40
28374;DHT22;15616;40.148;-102.718;2023-02-03T05:26:05;20.10;48.40
28374;DHT22;15616;40.148;-102.718;2023-02-03T05:28:31;20.10;48.40
28374;DHT22;15616;40.148;-102.718;2023-02-03T05:30:58;20.10;48.30
28374;DHT22;15616;40.148;-102.718;2023-02-03T05:33:24;20.20;48.30
28374;DHT22;15616;40.148;-102.718;2023-02-03T05:35:50;20.20;48.30
28374;DHT22;15616;40.148;-102.718;2023-02-03T05:38:16;20.20;48.20
28374;DHT22;15616;40.148;-102.718;2023-02-03T05:40:42;20.20;48.10
28374;DHT22;15616;40.148;-102.718;2023-02-03T05:43:27;20.30;48.10
28374;DHT22;15616;40.148;-102.718;2023-02-03T05:45:53;20.30;48.00
28374;DHT22;15616;40.148;-102.718;2023-02-03T05:48:19;20.20;47.90
28374;DHT22;15616;40.148;-102.718;2023-02-03T05:50:45;20.20;48.00
28374;DHT22;15616;40.148;-102.718;2023-02-03T05:53:11;20.20;48.10
28374;DHT22;15616;40.148;-102.718;2023-02-03T05:55:37;20.20;48.00
28374;DHT22;15616;40.148;-102.718;2023-02-03T05:58:03;20.20;48.00
28374;DHT22;15616;40.148;-102.718;2023-02-03T06:00:29;20.20;48.00
28374;DHT22;15616;40.148;-102.718;2023-02-03T06:02:58;20.20;48.00
28374;DHT22;15616;40.148;-102.718;2023-02-03T06:05:25;20.20;47.90
28374;DHT22;15616;40.148;-102.718;2023-02-03T06:07:51;20.10;47.90
28374;DHT22;15616;40.148;-102.718;2023-02-03T06:10:17;20.10;48.00
28374;DHT22;15616;40.148;-102.718;2023-02-03T06:12:44;20.20;48.00
28374;DHT22;15616;40.148;-102.718;2023-02-03T06:15:10;20.20;48.00
28374;DHT22;15616;40.148;-102.718;2023-02-03T06:17:36;20.20;48.00
28374;DHT22;15616;40.148;-102.718;2023-02-03T06:20:06;20.30;48.10
28374;DHT22;15616;40.148;-102.718;2023-02-03T06:22:33;20.30;47.90
28374;DHT22;15616;40.148;-102.718;2023-02-03T06:24:59;20.30;47.90
28374;DHT22;15616;40.148;-102.718;2023-02-03T06:27:25;20.30;47.90
28374;DHT22;15616;40.148;-102.718;2023-02-03T06:29:51;20.30;47.80
28374;DHT22;15616;40.148;-102.718;2023-02-03T06:32:17;20.40;47.80
28374;DHT22;15616;40.148;-102.718;2023-02-03T06:34:43;20.30;47.80
28374;DHT22;15616;40.148;-102.718;2023-02-03T06:37:10;20.30;47.80
28374;DHT22;15616;40.148;-102.718;2023-02-03T06:39:36;20.40;47.80
28374;DHT22;15616;40.148;-102.718;2023-02-03T06:42:02;20.40;47.80
28374;DHT22;15616;40.148;-102.718;2023-02-03T06:44:28;20.30;47.80
28374;DHT22;15616;40.148;-102.718;2023-02-03T06:46:54;20.40;47.70
28374;DHT22;15616;40.148;-102.718;2023-02-03T06:49:21;20.30;47.70
28374;DHT22;15616;40.148;-102.718;2023-02-03T06:51:46;20.30;47.80
28374;DHT22;15616;40.148;-102.718;2023-02-03T06:54:12;20.30;47.80
28374;DHT22;15616;40.148;-102.718;2023-02-03T06:56:38;20.30;47.80
28374;DHT22;15616;40.148;-102.718;2023-02-03T06:59:04;20.30;47.80
28374;DHT22;15616;40.148;-102.718;2023-02-03T07:01:30;20.40;47.80
28374;DHT22;15616;40.148;-102.718;2023-02-03T07:03:57;20.40;47.80
28374;DHT22;15616;40.148;-102.718;2023-02-03T07:06:26;20.40;47.80
28374;DHT22;15616;40.148;-102.718;2023-02-03T07:08:57;20.40;47.80
28374;DHT22;15616;40.148;-102.718;2023-02-03T07:11:23;20.40;47.80
28374;DHT22;15616;40.148;-102.718;2023-02-03T07:13:50;20.30;47.70
28374;DHT22;15616;40.148;-102.718;2023-02-03T07:16:16;20.30;47.70
28374;DHT22;15616;40.148;-102.718;2023-02-03T07:18:42;20.30;47.80
28374;DHT22;15616;40.148;-102.718;2023-02-03T07:21:08;20.40;47.80
28374;DHT22;15616;40.148;-102.718;2023-02-03T07:23:35;20.30;47.70
28374;DHT22;15616;40.148;-102.718;2023-02-03T07:26:02;20.40;47.80
28374;DHT22;15616;40.148;-102.718;2023-02-03T07:28:30;20.40;47.80
28374;DHT22;15616;40.148;-102.718;2023-02-03T07:30:56;20.40;47.80
28374;DHT22;15616;40.148;-102.718;2023-02-03T07:33:22;20.40;47.70
28374;DHT22;15616;40.148;-102.718;2023-02-03T07:35:55;20.40;47.70
28374;DHT22;15616;40.148;-102.718;2023-02-03T07:38:23;20.50;47.70
28374;DHT22;15616;40.148;-102.718;2023-02-03T07:40:50;20.50;47.70
28374;DHT22;15616;40.148;-102.718;2023-02-03T07:43:16;20.50;47.70
28374;DHT22;15616;40.148;-102.718;2023-02-03T07:45:43;20.50;47.70
28374;DHT22;15616;40.148;-102.718;2023-02-03T07:48:09;20.50;47.70
28374;DHT22;15616;40.148;-102.718;2023-02-03T07:50:35;20.40;47.70
28374;DHT22;15616;40.148;-102.718;2023-02-03T07:53:01;20.40;47.60
28374;DHT22;15616;40.148;-102.718;2023-02-03T07:55:28;20.40;47.60
28374;DHT22;15616;40.148;-102.718;2023-02-03T07:57:55;20.40;47.70
28374;DHT22;15616;40.148;-102.718;2023-02-03T08:00:22;20.40;47.70
28374;DHT22;15616;40.148;-102.718;2023-02-03T08:02:49;20.50;47.70
28374;DHT22;15616;40.148;-102.718;2023-02-03T08:05:15;20.50;47.60
28374;DHT22;15616;40.148;-102.718;2023-02-03T08:07:42;20.50;47.70
28374;DHT22;15616;40.148;-102.718;2023-02-03T08:10:10;20.50;47.70
28374;DHT22;15616;40.148;-102.718;2023-02-03T08:12:36;20.40;47.60
28374;DHT22;15616;40.148;-102.718;2023-02-03T08:15:02;20.40;47.70
28374;DHT22;15616;40.148;-102.718;2023-02-03T08:17:28;20.40;47.70
28374;DHT22;15616;40.148;-102.718;2023-02-03T08:19:54;20.40;47.80
28374;DHT22;15616;40.148;-102.718;2023-02-03T08:22:20;20.40;47.80
28374;DHT22;15616;40.148;-102.718;2023-02-03T08:24:46;20.40;47.80
28374;DHT22;15616;40.148;-102.718;2023-02-03T08:27:17;20.40;47.80
28374;DHT22;15616;40.148;-102.718;2023-02-03T08:29:43;20.40;47.80
28374;DHT22;15616;40.148;-102.718;2023-02-03T08:32:11;20.40;47.80
28374;DHT22;15616;40.148;-102.718;2023-02-03T08:34:38;20.40;47.90
28374;DHT22;15616;40.148;-102.718;2023-02-03T08:37:04;20.40;47.90
28374;DHT22;15616;40.148;-102.718;2023-02-03T08:39:31;20.40;48.00
28374;DHT22;15616;40.148;-102.718;2023-02-03T08:41:58;20.40;48.00
28374;DHT22;15616;40.148;-102.718;2023-02-03T08:44:24;20.40;48.00
28374;DHT22;15616;40.148;-102.718;2023-02-03T08:46:51;20.40;48.00
28374;DHT22;15616;40.148;-102.718;2023-02-03T08:49:18;20.40;48.00
28374;DHT22;15616;40.148;-102.718;2023-02-03T08:51:46;20.40;48.00
28374;DHT22;15616;40.148;-102.718;2023-02-03T08:54:12;20.40;48.00
28374;DHT22;15616;40.148;-102.718;2023-02-03T08:56:38;20.40;48.00
28374;DHT22;15616;40.148;-102.718;2023-02-03T08:59:05;20.40;48.00
28374;DHT22;15616;40.148;-102.718;2023-02-03T09:01:31;20.40;48.00
28374;DHT22;15616;40.148;-102.718;2023-02-03T09:03:57;20.40;48.00
28374;DHT22;15616;40.148;-102.718;2023-02-03T09:06:23;20.40;48.00
28374;DHT22;15616;40.148;-102.718;2023-02-03T09:08:49;20.40;48.00
28374;DHT22;15616;40.148;-102.718;2023-02-03T09:11:17;20.50;48.10
28374;DHT22;15616;40.148;-102.718;2023-02-03T09:13:43;20.40;48.00
28374;DHT22;15616;40.148;-102.718;2023-02-03T09:16:16;20.50;48.10
28374;DHT22;15616;40.148;-102.718;2023-02-03T09:18:43;20.50;48.10
28374;DHT22;15616;40.148;-102.718;2023-02-03T09:21:10;20.40;48.10
28374;DHT22;15616;40.148;-102.718;2023-02-03T09:23:37;20.50;48.80
28374;DHT22;15616;40.148;-102.718;2023-02-03T09:26:05;20.50;48.20
28374;DHT22;15616;40.148;-102.718;2023-02-03T09:28:31;20.40;48.10
28374;DHT22;15616;40.148;-102.718;2023-02-03T09:31:06;20.50;48.10
28374;DHT22;15616;40.148;-102.718;2023-02-03T09:33:33;20.50;48.20
28374;DHT22;15616;40.148;-102.718;2023-02-03T09:35:59;20.50;48.20
28374;DHT22;15616;40.148;-102.718;2023-02-03T09:38:26;20.50;48.20
28374;DHT22;15616;40.148;-102.718;2023-02-03T09:40:55;20.40;48.10
28374;DHT22;15616;40.148;-102.718;2023-02-03T09:43:44;20.50;48.10
28374;DHT22;15616;40.148;-102.718;2023-02-03T09:46:22;20.50;48.20
28374;DHT22;15616;40.148;-102.718;2023-02-03T09:48:56;20.40;48.20
28374;DHT22;15616;40.148;-102.718;2023-02-03T09:51:41;20.40;48.30
28374;DHT22;15616;40.148;-102.718;2023-02-03T09:54:20;20.50;48.20
28374;DHT22;15616;40.148;-102.718;2023-02-03T09:56:48;20.40;48.30
28374;DHT22;15616;40.148;-102.718;2023-02-03T09:59:17;20.40;48.30
28374;DHT22;15616;40.148;-102.718;2023-02-03T10:04:53;20.50;48.30
28374;DHT22;15616;40.148;-102.718;2023-02-03T10:07:17;20.50;48.30
28374;DHT22;15616;40.148;-102.718;2023-02-03T10:10:12;20.50;48.40
28374;DHT22;15616;40.148;-102.718;2023-02-03T10:12:56;20.60;48.40
28374;DHT22;15616;40.148;-102.718;2023-02-03T10:18:18;20.60;48.30
28374;DHT22;15616;40.148;-102.718;2023-02-03T10:20:52;20.70;48.00
28374;DHT22;15616;40.148;-102.718;2023-02-03T10:23:30;20.70;47.90
28374;DHT22;15616;40.148;-102.718;2023-02-03T10:26:01;20.70;47.90
28374;DHT22;15616;40.148;-102.718;2023-02-03T10:28:38;20.70;47.90
28374;DHT22;15616;40.148;-102.718;2023-02-03T10:31:17;20.70;48.00
28374;DHT22;15616;40.148;-102.718;2023-02-03T10:33:44;20.70;47.90
28374;DHT22;15616;40.148;-102.718;2023-02-03T10:36:22;20.70;47.90
28374;DHT22;15616;40.148;-102.718;2023-02-03T10:39:23;20.70;47.80
28374;DHT22;15616;40.148;-102.718;2023-02-03T10:41:50;20.70;47.90
28374;DHT22;15616;40.148;-102.718;2023-02-03T10:44:16;20.60;47.90
28374;DHT22;15616;40.148;-102.718;2023-02-03T10:46:42;20.60;47.90
28374;DHT22;15616;40.148;-102.718;2023-02-03T10:49:10;20.60;47.90
28374;DHT22;15616;40.148;-102.718;2023-02-03T10:51:50;20.60;47.90
28374;DHT22;15616;40.148;-102.718;2023-02-03T10:54:31;20.60;48.00
28374;DHT22;15616;40.148;-102.718;2023-02-03T10:57:09;20.60;48.00
28374;DHT22;15616;40.148;-102.718;2023-02-03T10:59:40;20.60;48.00
28374;DHT22;15616;40.148;-102.718;2023-02-03T11:04:46;20.60;48.00
28374;DHT22;15616;40.148;-102.718;2023-02-03T11:07:25;20.60;48.00
28374;DHT22;15616;40.148;-102.718;2023-02-03T11:09:52;20.60;47.90
28374;DHT22;15616;40.148;-102.718;2023-02-03T11:12:18;20.60;48.00
28374;DHT22;15616;40.148;-102.718;2023-02-03T11:14:52;20.60;47.90
28374;DHT22;15616;40.148;-102.718;2023-02-03T11:17:24;20.60;48.00
28374;DHT22;15616;40.148;-102.718;2023-02-03T11:20:14;20.60;48.00
28374;DHT22;15616;40.148;-102.718;2023-02-03T11:22:42;20.60;48.00
28374;DHT22;15616;40.148;-102.718;2023-02-03T11:25:27;20.60;48.00
28374;DHT22;15616;40.148;-102.718;2023-02-03T11:27:55;20.60;47.90
28374;DHT22;15616;40.148;-102.718;2023-02-03T11:30:26;20.60;48.00
28374;DHT22;15616;40.148;-102.718;2023-02-03T11:32:54;20.60;48.00
28374;DHT22;15616;40.148;-102.718;2023-02-03T11:35:26;20.60;48.00
28374;DHT22;15616;40.148;-102.718;2023-02-03T11:37:57;20.60;48.00
28374;DHT22;15616;40.148;-102.718;2023-02-03T11:40:29;20.60;48.00
28374;DHT22;15616;40.148;-102.718;2023-02-03T11:45:27;20.60;48.00
28374;DHT22;15616;40.148;-102.718;2023-02-03T11:50:34;20.60;48.00
28374;DHT22;15616;40.148;-102.718;2023-02-03T11:55:44;20.60;48.10
28374;DHT22;15616;40.148;-102.718;2023-02-03T11:58:29;20.60;48.10
28374;DHT22;15616;40.148;-102.718;2023-02-03T12:07:42;20.60;48.10
28374;DHT22;15616;40.148;-102.718;2023-02-03T12:26:35;20.60;48.10
28374;DHT22;15616;40.148;-102.718;2023-02-03T12:29:23;20.60;48.10
28374;DHT22;15616;40.148;-102.718;2023-02-03T12:34:44;20.60;48.00
28374;DHT22;15616;40.148;-102.718;2023-02-03T12:40:20;20.60;48.00
28374;DHT22;15616;40.148;-102.718;2023-02-03T12:42:54;20.60;48.10
28374;DHT22;15616;40.148;-102.718;2023-02-03T12:45:26;20.60;48.00
28374;DHT22;15616;40.148;-102.718;2023-02-03T12:48:03;20.70;48.10
28374;DHT22;15616;40.148;-102.718;2023-02-03T12:50:47;20.70;48.00
28374;DHT22;15616;40.148;-102.718;2023-02-03T12:53:28;20.70;48.00
28374;DHT22;15616;40.148;-102.718;2023-02-03T12:56:11;20.70;48.00
28374;DHT22;15616;40.148;-102.718;2023-02-03T12:58:53;20.70;48.10
28374;DHT22;15616;40.148;-102.718;2023-02-03T13:01:25;20.70;48.00
28374;DHT22;15616;40.148;-102.718;2023-02-03T13:04:00;20.70;48.00
28374;DHT22;15616;40.148;-102.718;2023-02-03T13:14:27;20.80;47.80
28374;DHT22;15616;40.148;-102.718;2023-02-03T13:19:52;20.70;47.90
28374;DHT22;15616;40.148;-102.718;2023-02-03T13:22:21;20.70;47.90
28374;DHT22;15616;40.148;-102.718;2023-02-03T13:27:47;20.80;48.00
28374;DHT22;15616;40.148;-102.718;2023-02-03T13:30:24;20.70;47.90
28374;DHT22;15616;40.148;-102.718;2023-02-03T13:39:58;20.80;47.90
28374;DHT22;15616;40.148;-102.718;2023-02-03T13:42:06;20.80;48.00
28374;DHT22;15616;40.148;-102.718;2023-02-03T13:44:36;20.80;48.00
28374;DHT22;15616;40.148;-102.718;2023-02-03T13:47:03;20.80;48.00
28374;DHT22;15616;40.148;-102.718;2023-02-03T13:49:32;20.80;47.90
28374;DHT22;15616;40.148;-102.718;2023-02-03T13:51:59;20.80;48.00
28374;DHT22;15616;40.148;-102.718;2023-02-03T13:57:00;20.80;48.00
28374;DHT22;15616;40.148;-102.718;2023-02-03T14:04:58;20.80;47.90
28374;DHT22;15616;40.148;-102.718;2023-02-03T14:07:38;20.80;48.00
28374;DHT22;15616;40.148;-102.718;2023-02-03T14:17:58;20.80;47.90
28374;DHT22;15616;40.148;-102.718;2023-02-03T14:22:57;20.80;47.80
28374;DHT22;15616;40.148;-102.718;2023-02-03T14:25:24;20.80;47.80
28374;DHT22;15616;40.148;-102.718;2023-02-03T14:28:06;20.80;47.80
28374;DHT22;15616;40.148;-102.718;2023-02-03T14:30:32;20.80;47.80
28374;DHT22;15616;40.148;-102.718;2023-02-03T14:33:18;20.80;47.80
28374;DHT22;15616;40.148;-102.718;2023-02-03T14:35:50;20.80;47.80
28374;DHT22;15616;40.148;-102.718;2023-02-03T14:38:16;20.80;47.90
28374;DHT22;15616;40.148;-102.718;2023-02-03T14:40:52;20.80;47.90
28374;DHT22;15616;40.148;-102.718;2023-02-03T14:56:53;20.80;47.90
28374;DHT22;15616;40.148;-102.718;2023-02-03T14:59:49;20.80;47.80
28374;DHT22;15616;40.148;-102.718;2023-02-03T15:02:21;20.80;47.80
28374;DHT22;15616;40.148;-102.718;2023-02-03T15:04:51;20.80;47.80
28374;DHT22;15616;40.148;-102.718;2023-02-03T15:07:46;20.80;47.80
28374;DHT22;15616;40.148;-102.718;2023-02-03T15:10:17;20.90;47.80
28374;DHT22;15616;40.148;-102.718;2023-02-03T15:12:50;20.80;47.80
28374;DHT22;15616;40.148;-102.718;2023-02-03T15:15:27;20.80;47.80
28374;DHT22;15616;40.148;-102.718;2023-02-03T15:17:56;20.80;47.80
28374;DHT22;15616;40.148;-102.718;2023-02-03T15:20:35;20.80;47.80
28374;DHT22;15616;40.148;-102.718;2023-02-03T15:23:25;20.90;47.90
28374;DHT22;15616;40.148;-102.718;2023-02-03T15:25:59;20.80;47.90
28374;DHT22;15616;40.148;-102.718;2023-02-03T15:28:27;20.80;47.90
28374;DHT22;15616;40.148;-102.718;2023-02-03T15:31:08;20.80;47.90
28374;DHT22;15616;40.148;-102.718;2023-02-03T15:33:38;20.90;47.80
28374;DHT22;15616;40.148;-102.718;2023-02-03T15:36:57;20.90;47.90
28374;DHT22;15616;40.148;-102.718;2023-02-03T15:39:13;20.90;47.80
28374;DHT22;15616;40.148;-102.718;2023-02-03T15:41:42;20.80;47.80
28374;DHT22;15616;40.148;-102.718;2023-02-03T15:46:52;20.90;47.90
28374;DHT22;15616;40.148;-102.718;2023-02-03T15:49:29;20.80;47.90
28374;DHT22;15616;40.148;-102.718;2023-02-03T15:51:57;20.80;47.90
28374;DHT22;15616;40.148;-102.718;2023-02-03T15:57:09;20.90;47.90
28374;DHT22;15616;40.148;-102.718;2023-02-03T15:59:42;20.90;47.90
28374;DHT22;15616;40.148;-102.718;2023-02-03T16:02:26;20.80;47.80
28374;DHT22;15616;40.148;-102.718;2023-02-03T16:04:53;20.90;47.90
28374;DHT22;15616;40.148;-102.718;2023-02-03T16:07:24;20.80;47.90
28374;DHT22;15616;40.148;-102.718;2023-02-03T16:09:55;20.90;47.90
28374;DHT22;15616;40.148;-102.718;2023-02-03T16:12:26;20.90;48.00
28374;DHT22;15616;40.148;-102.718;2023-02-03T16:14:54;20.90;47.90
28374;DHT22;15616;40.148;-102.718;2023-02-03T16:17:29;20.90;47.90
28374;DHT22;15616;40.148;-102.718;2023-02-03T16:23:04;20.90;48.70
28374;DHT22;15616;40.148;-102.718;2023-02-03T16:25:32;20.90;48.00
28374;DHT22;15616;40.148;-102.718;2023-02-03T16:28:16;20.80;47.90
28374;DHT22;15616;40.148;-102.718;2023-02-03T16:31:09;20.90;48.00
28374;DHT22;15616;40.148;-102.718;2023-02-03T16:33:56;20.80;47.90
28374;DHT22;15616;40.148;-102.718;2023-02-03T16:36:42;20.80;48.00
28374;DHT22;15616;40.148;-102.718;2023-02-03T16:39:27;20.80;48.00
28374;DHT22;15616;40.148;-102.718;2023-02-03T16:42:20;20.80;48.00
28374;DHT22;15616;40.148;-102.718;2023-02-03T16:45:16;20.80;48.00
28374;DHT22;15616;40.148;-102.718;2023-02-03T16:48:02;20.90;48.00
28374;DHT22;15616;40.148;-102.718;2023-02-03T16:50:46;20.80;48.00
28374;DHT22;15616;40.148;-102.718;2023-02-03T16:53:27;20.80;47.90
28374;DHT22;15616;40.148;-102.718;2023-02-03T16:55:56;20.80;48.00
28374;DHT22;15616;40.148;-102.718;2023-02-03T16:58:23;20.80;48.00
28374;DHT22;15616;40.148;-102.718;2023-02-03T17:00:50;20.80;48.00
28374;DHT22;15616;40.148;-102.718;2023-02-03T17:03:19;20.80;48.00
28374;DHT22;15616;40.148;-102.718;2023-02-03T17:05:47;20.80;48.00
28374;DHT22;15616;40.148;-102.718;2023-02-03T17:08:14;20.80;48.00
28374;DHT22;15616;40.148;-102.718;2023-02-03T17:10:42;20.80;48.10
28374;DHT22;15616;40.148;-102.718;2023-02-03T17:13:09;20.80;48.00
28374;DHT22;15616;40.148;-102.718;2023-02-03T17:15:43;20.80;48.00
28374;DHT22;15616;40.148;-102.718;2023-02-03T17:18:09;20.90;48.00
28374;DHT22;15616;40.148;-102.718;2023-02-03T17:20:36;20.80;48.00
28374;DHT22;15616;40.148;-102.718;2023-02-03T17:23:03;20.80;47.90
28374;DHT22;15616;40.148;-102.718;2023-02-03T17:25:31;20.80;47.90
28374;DHT22;15616;40.148;-102.718;2023-02-03T17:28:04;20.90;48.00